createdAt,value
2016-12-15T00:01:12.081Z,99.99
2016-12-15T00:01:57.179Z,99.99
2016-12-15T00:02:57.195Z,99.99
2016-12-15T00:03:57.212Z,99.99
2016-12-15T00:04:57.227Z,99.99
2016-12-15T00:05:57.246Z,99.99
2016-12-15T00:06:57.261Z,99.99
2016-12-15T00:07:57.279Z,99.99
2016-12-15T00:08:57.294Z,99.99
2016-12-15T00:09:57.312Z,99.99
2016-12-15T00:10:57.330Z,99.99
2016-12-15T00:12:57.362Z,99.99
2016-12-15T00:13:57.377Z,99.99
2016-12-15T00:14:57.394Z,99.99
2016-12-15T00:15:57.412Z,99.99
2016-12-15T00:17:12.348Z,99.99
2016-12-15T00:17:57.448Z,99.99
2016-12-15T00:18:57.462Z,99.99
2016-12-15T00:19:57.480Z,99.99
2016-12-15T00:20:57.494Z,99.99
2016-12-15T00:21:57.510Z,99.99
2016-12-15T00:22:57.527Z,99.99
2016-12-15T00:23:57.545Z,99.99
2016-12-15T00:24:57.561Z,99.99
2016-12-15T00:25:57.578Z,99.99
2016-12-15T00:26:57.594Z,99.99
2016-12-15T00:27:57.614Z,99.99
2016-12-15T00:28:57.629Z,99.99
2016-12-15T00:29:57.646Z,99.99
2016-12-15T00:30:57.661Z,99.99
2016-12-15T00:31:57.681Z,99.99
2016-12-15T00:33:12.612Z,99.99
2016-12-15T00:33:57.711Z,99.99
2016-12-15T00:34:57.729Z,99.99
2016-12-15T00:35:57.746Z,99.99
2016-12-15T00:36:57.761Z,99.99
2016-12-15T00:37:57.778Z,99.99
2016-12-15T00:38:57.845Z,99.99
2016-12-15T00:39:57.813Z,99.99
2016-12-15T00:40:57.828Z,99.99
2016-12-15T00:41:57.846Z,99.99
2016-12-15T00:42:57.861Z,99.99
2016-12-15T00:43:57.878Z,99.99
2016-12-15T00:45:57.913Z,99.99
2016-12-15T00:46:57.928Z,99.99
2016-12-15T00:47:57.947Z,99.99
2016-12-15T00:49:12.879Z,99.99
2016-12-15T00:49:57.978Z,99.99
2016-12-15T00:50:57.996Z,99.99
2016-12-15T00:51:58.011Z,99.99
2016-12-15T00:52:58.028Z,99.99
2016-12-15T00:53:58.046Z,99.99
2016-12-15T00:54:58.061Z,99.99
2016-12-15T00:55:58.078Z,99.99
2016-12-15T00:56:58.097Z,99.99
2016-12-15T00:57:58.112Z,99.99
2016-12-15T00:58:58.152Z,99.99
2016-12-15T01:00:58.163Z,99.99
2016-12-15T01:01:58.180Z,99.99
2016-12-15T01:02:58.197Z,99.99
2016-12-15T01:04:13.131Z,99.99
2016-12-15T01:04:58.230Z,99.99
2016-12-15T01:05:58.247Z,99.99
2016-12-15T01:06:58.263Z,99.99
2016-12-15T01:07:58.281Z,99.99
2016-12-15T01:08:58.297Z,99.99
2016-12-15T01:09:58.313Z,99.99
2016-12-15T01:10:58.330Z,99.99
2016-12-15T01:11:58.347Z,99.99
2016-12-15T01:12:58.363Z,99.99
2016-12-15T01:13:58.381Z,99.99
2016-12-15T01:14:58.395Z,99.99
2016-12-15T01:15:58.415Z,99.99
2016-12-15T01:16:58.429Z,99.99
2016-12-15T01:17:58.449Z,99.99
2016-12-15T01:18:58.464Z,99.99
2016-12-15T01:19:58.483Z,99.99
2016-12-15T01:20:58.498Z,99.99
2016-12-15T01:21:58.513Z,99.99
2016-12-15T01:22:58.531Z,99.99
2016-12-15T01:23:58.545Z,99.99
2016-12-15T01:24:58.564Z,99.99
2016-12-15T01:25:58.581Z,99.99
2016-12-15T01:26:58.597Z,99.99
2016-12-15T01:27:58.615Z,99.99
2016-12-15T01:28:58.631Z,99.99
2016-12-15T01:29:58.645Z,99.99
2016-12-15T01:31:58.681Z,99.99
2016-12-15T01:32:58.702Z,99.99
2016-12-15T01:33:58.715Z,99.99
2016-12-15T01:34:58.729Z,99.99
2016-12-15T01:36:13.665Z,99.99
2016-12-15T01:36:58.764Z,99.99
2016-12-15T01:37:58.782Z,99.99
2016-12-15T01:38:58.798Z,99.99
2016-12-15T01:39:58.814Z,99.99
2016-12-15T01:40:58.831Z,99.99
2016-12-15T01:41:58.849Z,99.99
2016-12-15T01:42:59.171Z,99.99
2016-12-15T01:43:58.881Z,99.99
2016-12-15T01:44:58.899Z,99.99
2016-12-15T01:45:58.913Z,99.99
2016-12-15T01:46:58.932Z,99.99
2016-12-15T01:48:58.965Z,99.99
2016-12-15T01:49:58.980Z,99.99
2016-12-15T01:50:58.997Z,99.99
2016-12-15T01:52:13.932Z,99.99
2016-12-15T01:52:59.031Z,99.99
2016-12-15T01:53:59.050Z,99.99
2016-12-15T01:54:59.063Z,99.99
2016-12-15T01:55:59.083Z,99.99
2016-12-15T01:56:59.097Z,99.99
2016-12-15T01:57:59.114Z,99.99
2016-12-15T01:58:59.130Z,99.99
2016-12-15T01:59:59.200Z,99.99
2016-12-15T02:00:59.164Z,99.99
2016-12-15T02:01:59.179Z,99.99
2016-12-15T02:03:59.214Z,99.99
2016-12-15T02:04:59.231Z,99.99
2016-12-15T02:05:59.249Z,99.99
2016-12-15T02:06:59.264Z,99.99
2016-12-15T02:08:14.201Z,99.99
2016-12-15T02:08:59.297Z,99.99
2016-12-15T02:09:59.316Z,99.99
2016-12-15T02:10:59.332Z,99.99
2016-12-15T02:11:59.350Z,99.99
2016-12-15T02:12:59.366Z,99.99
2016-12-15T02:13:59.382Z,99.99
2016-12-15T02:14:59.400Z,99.99
2016-12-15T02:15:59.415Z,99.99
2016-12-15T02:16:59.480Z,99.99
2016-12-15T02:17:59.451Z,99.99
2016-12-15T02:18:59.466Z,99.99
2016-12-15T02:19:59.481Z,99.99
2016-12-15T02:20:59.497Z,99.99
2016-12-15T02:21:59.518Z,99.99
2016-12-15T02:22:59.533Z,99.99
2016-12-15T02:24:14.466Z,99.99
2016-12-15T02:24:59.594Z,99.99
2016-12-15T02:25:59.581Z,99.99
2016-12-15T02:26:59.601Z,99.99
2016-12-15T02:27:59.664Z,99.99
2016-12-15T02:28:59.632Z,99.99
2016-12-15T02:29:59.647Z,99.99
2016-12-15T02:30:59.664Z,99.99
2016-12-15T02:31:59.681Z,99.99
2016-12-15T02:32:59.700Z,99.99
2016-12-15T02:33:59.715Z,99.99
2016-12-15T02:35:59.748Z,99.99
2016-12-15T02:36:59.766Z,99.99
2016-12-15T02:37:59.782Z,99.99
2016-12-15T02:39:14.720Z,99.99
2016-12-15T02:39:59.818Z,99.99
2016-12-15T02:40:59.833Z,99.99
2016-12-15T02:41:59.875Z,99.99
2016-12-15T02:42:59.866Z,99.99
2016-12-15T02:43:59.882Z,99.99
2016-12-15T02:44:59.898Z,99.99
2016-12-15T02:45:59.915Z,99.99
2016-12-15T02:46:59.933Z,99.99
2016-12-15T02:47:59.949Z,99.99
2016-12-15T02:49:00.266Z,99.99
2016-12-15T02:51:00.000Z,99.99
2016-12-15T02:52:00.016Z,99.99
2016-12-15T02:53:00.032Z,99.99
2016-12-15T02:54:00.049Z,99.99
2016-12-15T02:55:00.067Z,99.99
2016-12-15T02:56:00.087Z,99.99
2016-12-15T02:57:00.101Z,99.99
2016-12-15T02:58:00.116Z,99.99
2016-12-15T02:59:00.132Z,99.99
2016-12-15T03:00:00.149Z,99.99
2016-12-15T03:01:00.166Z,99.99
2016-12-15T03:02:00.184Z,99.99
2016-12-15T03:04:00.217Z,99.99
2016-12-15T03:05:00.238Z,99.99
2016-12-15T03:06:00.252Z,99.99
2016-12-15T03:07:00.269Z,99.99
2016-12-15T03:08:00.287Z,99.99
2016-12-15T03:09:00.300Z,99.99
2016-12-15T03:10:00.317Z,99.99
2016-12-15T03:11:15.251Z,99.99
2016-12-15T03:12:00.351Z,99.99
2016-12-15T03:13:00.367Z,99.99
2016-12-15T03:14:00.383Z,99.99
2016-12-15T03:15:00.408Z,99.99
2016-12-15T03:16:00.418Z,99.99
2016-12-15T03:17:00.436Z,99.99
2016-12-15T03:18:00.450Z,99.99
2016-12-15T03:19:00.468Z,99.99
2016-12-15T03:20:00.483Z,99.99
2016-12-15T03:21:00.501Z,99.99
2016-12-15T03:22:00.518Z,99.99
2016-12-15T03:23:00.534Z,99.99
2016-12-15T03:24:00.553Z,99.99
2016-12-15T03:25:00.570Z,99.99
2016-12-15T03:26:00.584Z,99.99
2016-12-15T03:27:15.520Z,99.99
2016-12-15T03:28:00.620Z,99.99
2016-12-15T03:29:00.637Z,99.99
2016-12-15T03:30:00.653Z,99.99
2016-12-15T03:31:00.668Z,99.99
2016-12-15T03:32:00.985Z,99.99
2016-12-15T03:33:00.704Z,99.99
2016-12-15T03:34:00.719Z,99.99
2016-12-15T03:35:00.738Z,99.99
2016-12-15T03:36:00.753Z,99.99
2016-12-15T03:37:00.773Z,99.99
2016-12-15T03:38:01.087Z,99.99
2016-12-15T03:39:00.804Z,99.99
2016-12-15T03:40:00.819Z,99.99
2016-12-15T03:41:00.837Z,99.99
2016-12-15T03:42:00.853Z,99.99
2016-12-15T03:43:15.787Z,99.99
2016-12-15T03:44:00.935Z,99.99
2016-12-15T03:45:00.902Z,99.99
2016-12-15T03:46:00.919Z,99.99
2016-12-15T03:47:00.937Z,99.99
2016-12-15T03:48:00.953Z,99.99
2016-12-15T03:49:00.970Z,99.99
2016-12-15T03:50:00.994Z,99.99
2016-12-15T03:52:01.019Z,99.99
2016-12-15T03:53:01.036Z,99.99
2016-12-15T03:54:01.058Z,99.99
2016-12-15T03:55:01.095Z,99.99
2016-12-15T03:56:01.087Z,99.99
2016-12-15T03:57:01.104Z,99.99
2016-12-15T03:58:01.121Z,99.99
2016-12-15T03:59:16.055Z,99.99
2016-12-15T04:00:01.153Z,99.99
2016-12-15T04:01:01.173Z,99.99
2016-12-15T04:02:01.189Z,99.99
2016-12-15T04:03:01.209Z,99.99
2016-12-15T04:04:01.222Z,99.99
2016-12-15T04:05:01.236Z,99.99
2016-12-15T04:06:01.255Z,99.99
2016-12-15T04:07:01.271Z,99.99
2016-12-15T04:08:01.290Z,99.99
2016-12-15T04:09:01.304Z,99.99
2016-12-15T04:10:01.322Z,99.99
2016-12-15T04:11:01.343Z,99.99
2016-12-15T04:12:01.355Z,99.99
2016-12-15T04:13:01.680Z,99.99
2016-12-15T04:14:16.308Z,99.99
2016-12-15T04:15:01.409Z,99.99
2016-12-15T04:16:01.423Z,99.99
2016-12-15T04:17:01.439Z,99.99
2016-12-15T04:18:01.459Z,99.99
2016-12-15T04:19:01.474Z,99.99
2016-12-15T04:20:01.499Z,99.99
2016-12-15T04:21:01.506Z,99.99
2016-12-15T04:22:01.525Z,99.99
2016-12-15T04:23:01.543Z,99.99
2016-12-15T04:24:01.561Z,99.99
2016-12-15T04:25:01.580Z,99.99
2016-12-15T04:26:01.597Z,99.99
2016-12-15T04:27:01.607Z,99.99
2016-12-15T04:28:01.625Z,99.99
2016-12-15T04:29:01.643Z,99.99
2016-12-15T04:30:01.659Z,99.99
2016-12-15T04:31:01.676Z,99.99
2016-12-15T04:32:01.692Z,99.99
2016-12-15T04:33:02.015Z,99.99
2016-12-15T04:34:01.728Z,99.99
2016-12-15T04:35:01.747Z,99.99
2016-12-15T04:36:01.761Z,99.99
2016-12-15T04:37:01.778Z,99.99
2016-12-15T04:38:01.793Z,99.99
2016-12-15T04:39:01.810Z,99.99
2016-12-15T04:43:01.877Z,99.99
2016-12-15T04:44:02.354Z,99.99
2016-12-15T04:45:01.910Z,99.99
2016-12-15T04:46:16.846Z,99.99
2016-12-15T04:47:01.946Z,99.99
2016-12-15T04:48:01.992Z,99.99
2016-12-15T04:49:01.978Z,99.99
2016-12-15T04:50:02.002Z,99.99
2016-12-15T04:51:02.013Z,99.99
2016-12-15T04:52:02.080Z,99.99
2016-12-15T04:53:02.047Z,99.99
2016-12-15T04:54:02.062Z,99.99
2016-12-15T04:55:02.080Z,99.99
2016-12-15T04:56:02.096Z,99.99
2016-12-15T04:57:02.123Z,99.99
2016-12-15T04:58:02.180Z,99.99
2016-12-15T04:59:02.150Z,99.99
2016-12-15T05:00:02.165Z,99.99
2016-12-15T05:01:02.180Z,99.99
2016-12-15T05:02:17.115Z,99.99
2016-12-15T05:03:02.214Z,99.99
2016-12-15T05:04:02.230Z,99.99
2016-12-15T05:05:02.248Z,99.99
2016-12-15T05:06:02.265Z,99.99
2016-12-15T05:07:02.281Z,99.99
2016-12-15T05:08:02.299Z,99.99
2016-12-15T05:09:02.317Z,99.99
2016-12-15T05:10:02.333Z,99.99
2016-12-15T05:11:02.349Z,99.99
2016-12-15T05:12:02.364Z,99.99
2016-12-15T05:13:02.384Z,99.99
2016-12-15T05:14:02.401Z,99.99
2016-12-15T05:15:02.417Z,99.99
2016-12-15T05:16:02.433Z,99.99
2016-12-15T05:17:02.451Z,99.99
2016-12-15T05:18:17.384Z,99.99
2016-12-15T05:19:02.483Z,99.99
2016-12-15T05:20:02.500Z,99.99
2016-12-15T05:21:02.517Z,99.99
2016-12-15T05:22:02.533Z,99.99
2016-12-15T05:23:02.550Z,99.99
2016-12-15T05:24:02.568Z,99.99
2016-12-15T05:25:02.584Z,99.99
2016-12-15T05:26:02.600Z,99.99
2016-12-15T05:27:02.618Z,99.99
2016-12-15T05:28:02.637Z,99.99
2016-12-15T05:30:02.670Z,99.99
2016-12-15T05:31:02.685Z,99.99
2016-12-15T05:32:02.703Z,99.99
2016-12-15T05:33:02.718Z,99.99
2016-12-15T05:34:17.654Z,99.99
2016-12-15T05:35:02.754Z,99.99
2016-12-15T05:36:02.773Z,99.99
2016-12-15T05:37:02.787Z,99.99
2016-12-15T05:38:02.806Z,99.99
2016-12-15T05:39:02.821Z,99.99
2016-12-15T05:40:02.836Z,99.99
2016-12-15T05:41:02.854Z,99.99
2016-12-15T05:42:02.870Z,99.99
2016-12-15T05:43:02.886Z,99.99
2016-12-15T05:44:02.904Z,99.99
2016-12-15T05:46:02.938Z,99.99
2016-12-15T05:47:02.953Z,99.99
2016-12-15T05:48:02.974Z,99.99
2016-12-15T05:49:17.907Z,99.99
2016-12-15T05:50:03.006Z,99.99
2016-12-15T05:51:03.021Z,99.99
2016-12-15T05:52:03.040Z,99.99
2016-12-15T05:53:03.057Z,99.99
2016-12-15T05:54:03.075Z,99.99
2016-12-15T05:55:03.093Z,99.99
2016-12-15T05:56:03.106Z,99.99
2016-12-15T05:57:03.154Z,99.99
2016-12-15T05:58:03.139Z,99.99
2016-12-15T05:59:03.159Z,99.99
2016-12-15T06:01:03.194Z,99.99
2016-12-15T06:02:03.206Z,99.99
2016-12-15T06:03:03.225Z,99.99
2016-12-15T06:04:03.243Z,99.99
2016-12-15T06:05:03.258Z,99.99
2016-12-15T06:06:03.275Z,99.99
2016-12-15T06:07:03.292Z,99.99
2016-12-15T06:08:03.311Z,99.99
2016-12-15T06:09:03.326Z,99.99
2016-12-15T06:10:03.342Z,99.99
2016-12-15T06:11:03.358Z,99.99
2016-12-15T06:12:03.376Z,99.99
2016-12-15T06:13:03.393Z,99.99
2016-12-15T06:14:03.409Z,99.99
2016-12-15T06:17:03.462Z,99.99
2016-12-15T06:18:03.477Z,99.99
2016-12-15T06:19:03.493Z,99.99
2016-12-15T06:20:03.510Z,99.99
2016-12-15T06:21:18.444Z,99.99
2016-12-15T06:22:03.543Z,99.99
2016-12-15T06:23:03.560Z,99.99
2016-12-15T06:24:03.578Z,99.99
2016-12-15T06:25:03.598Z,99.99
2016-12-15T06:26:03.610Z,99.99
2016-12-15T06:27:03.629Z,99.99
2016-12-15T06:28:03.645Z,99.99
2016-12-15T06:29:03.963Z,99.99
2016-12-15T06:30:03.678Z,99.99
2016-12-15T06:31:03.694Z,99.99
2016-12-15T06:32:03.711Z,99.99
2016-12-15T06:33:03.727Z,99.99
2016-12-15T06:34:03.793Z,99.99
2016-12-15T06:35:03.766Z,99.99
2016-12-15T06:36:03.778Z,99.99
2016-12-15T06:37:18.712Z,99.99
2016-12-15T06:38:03.813Z,99.99
2016-12-15T06:39:03.828Z,99.99
2016-12-15T06:40:03.844Z,99.99
2016-12-15T06:41:03.861Z,99.99
2016-12-15T06:42:03.879Z,99.99
2016-12-15T06:43:03.896Z,99.99
2016-12-15T06:44:03.911Z,99.99
2016-12-15T06:45:03.930Z,99.99
2016-12-15T06:46:03.945Z,99.99
2016-12-15T06:48:03.977Z,99.99
2016-12-15T06:49:04.298Z,99.99
2016-12-15T06:50:04.011Z,99.99
2016-12-15T06:51:04.028Z,99.99
2016-12-15T06:52:04.045Z,99.99
2016-12-15T06:53:18.979Z,99.99
2016-12-15T06:54:04.080Z,99.99
2016-12-15T06:55:04.095Z,99.99
2016-12-15T06:56:04.112Z,99.99
2016-12-15T06:57:04.127Z,99.99
2016-12-15T06:58:04.146Z,99.99
2016-12-15T06:59:04.164Z,99.99
2016-12-15T07:00:04.179Z,99.99
2016-12-15T07:01:04.198Z,99.99
2016-12-15T07:02:04.212Z,99.99
2016-12-15T07:03:04.228Z,99.99
2016-12-15T07:04:04.248Z,99.99
2016-12-15T07:05:04.261Z,99.99
2016-12-15T07:06:04.279Z,99.99
2016-12-15T07:07:04.295Z,99.99
2016-12-15T07:08:04.316Z,99.99
2016-12-15T07:09:19.246Z,99.99
2016-12-15T07:10:04.344Z,99.99
2016-12-15T07:11:04.362Z,99.99
2016-12-15T07:12:04.378Z,99.99
2016-12-15T07:13:04.397Z,99.99
2016-12-15T07:14:04.412Z,99.99
2016-12-15T07:15:04.427Z,99.99
2016-12-15T07:16:04.445Z,99.99
2016-12-15T07:17:04.462Z,99.99
2016-12-15T07:18:04.485Z,99.99
2016-12-15T07:19:04.495Z,99.99
2016-12-15T07:21:04.580Z,99.99
2016-12-15T07:22:04.547Z,99.99
2016-12-15T07:23:04.564Z,99.99
2016-12-15T07:24:19.499Z,99.99
2016-12-15T07:25:04.598Z,99.99
2016-12-15T07:26:04.615Z,99.99
2016-12-15T07:27:04.653Z,99.99
2016-12-15T07:28:04.648Z,99.99
2016-12-15T07:29:04.666Z,99.99
2016-12-15T07:30:04.681Z,99.99
2016-12-15T07:31:04.698Z,99.99
2016-12-15T07:32:04.716Z,99.99
2016-12-15T07:33:04.733Z,99.99
2016-12-15T07:36:04.784Z,99.99
2016-12-15T07:37:04.799Z,99.99
2016-12-15T07:38:04.818Z,99.99
2016-12-15T07:39:04.833Z,99.99
2016-12-15T07:40:04.853Z,99.99
2016-12-15T07:41:04.867Z,99.99
2016-12-15T07:42:04.886Z,99.99
2016-12-15T07:43:04.901Z,99.99
2016-12-15T07:44:04.920Z,99.99
2016-12-15T07:45:04.934Z,99.99
2016-12-15T07:46:04.951Z,99.99
2016-12-15T07:47:04.971Z,99.99
2016-12-15T07:48:04.987Z,99.99
2016-12-15T07:49:05.003Z,99.99
2016-12-15T07:50:05.018Z,99.99
2016-12-15T07:52:05.053Z,99.67
2016-12-15T07:53:05.070Z,99.67
2016-12-15T07:54:05.087Z,99.77
2016-12-15T07:55:05.105Z,99.86
2016-12-15T07:56:20.038Z,99.99
2016-12-15T07:57:05.137Z,99.77
2016-12-15T07:58:05.157Z,99.99
2016-12-15T07:59:05.176Z,99.58
2016-12-15T08:00:05.188Z,99.77
2016-12-15T08:01:05.205Z,99.96
2016-12-15T08:02:05.226Z,99.86
2016-12-15T08:03:05.241Z,99.99
2016-12-15T08:04:05.255Z,99.99
2016-12-15T08:05:05.273Z,99.86
2016-12-15T08:06:05.290Z,99.39
2016-12-15T08:07:05.308Z,99.72
2016-12-15T08:08:05.330Z,99.63
2016-12-15T08:09:05.342Z,99.53
2016-12-15T08:10:05.357Z,99.15
2016-12-15T08:11:05.378Z,98.58
2016-12-15T08:12:20.310Z,98.77
2016-12-15T08:13:05.409Z,98.49
2016-12-15T08:14:05.425Z,98.49
2016-12-15T08:15:05.443Z,99.25
2016-12-15T08:16:05.461Z,99.25
2016-12-15T08:17:05.477Z,99.25
2016-12-15T08:18:05.547Z,98.68
2016-12-15T08:19:05.512Z,99.06
2016-12-15T08:20:05.529Z,98.87
2016-12-15T08:21:05.545Z,98.96
2016-12-15T08:22:05.564Z,98.58
2016-12-15T08:23:05.581Z,98.87
2016-12-15T08:24:05.598Z,99.15
2016-12-15T08:25:05.614Z,98.58
2016-12-15T08:26:05.631Z,98.58
2016-12-15T08:27:05.647Z,98.68
2016-12-15T08:28:20.583Z,98.77
2016-12-15T08:29:05.682Z,98.39
2016-12-15T08:30:05.699Z,98.39
2016-12-15T08:31:05.718Z,98.02
2016-12-15T08:32:05.734Z,97.64
2016-12-15T08:33:05.752Z,97.92
2016-12-15T08:34:05.769Z,97.35
2016-12-15T08:36:05.803Z,97.73
2016-12-15T08:37:05.820Z,98.21
2016-12-15T08:38:05.838Z,97.73
2016-12-15T08:39:05.853Z,97.83
2016-12-15T08:40:05.870Z,97.92
2016-12-15T08:41:05.942Z,97.83
2016-12-15T08:42:05.905Z,97.92
2016-12-15T08:43:05.921Z,97.83
2016-12-15T08:44:20.857Z,98.02
2016-12-15T08:45:05.958Z,98.02
2016-12-15T08:46:05.975Z,97.64
2016-12-15T08:47:05.990Z,97.73
2016-12-15T08:48:06.008Z,97.83
2016-12-15T08:49:06.026Z,98.02
2016-12-15T08:50:06.043Z,98.11
2016-12-15T08:51:06.060Z,98.39
2016-12-15T08:52:06.077Z,98.02
2016-12-15T08:54:06.110Z,97.64
2016-12-15T08:55:06.129Z,98.39
2016-12-15T08:56:06.145Z,98.68
2016-12-15T08:57:06.164Z,98.39
2016-12-15T08:58:06.180Z,98.49
2016-12-15T08:59:21.116Z,98.58
2016-12-15T09:00:06.215Z,98.39
2016-12-15T09:01:06.231Z,98.96
2016-12-15T09:02:06.250Z,98.68
2016-12-15T09:03:06.267Z,98.3
2016-12-15T09:04:06.283Z,98.11
2016-12-15T09:05:06.301Z,97.73
2016-12-15T09:06:06.318Z,98.02
2016-12-15T09:07:06.337Z,97.83
2016-12-15T09:08:06.351Z,97.83
2016-12-15T09:09:06.372Z,98.11
2016-12-15T09:10:06.389Z,97.73
2016-12-15T09:12:06.421Z,97.83
2016-12-15T09:13:06.441Z,97.64
2016-12-15T09:14:06.456Z,97.26
2016-12-15T09:15:06.518Z,97.07
2016-12-15T09:16:06.491Z,97.35
2016-12-15T09:17:06.507Z,97.26
2016-12-15T09:18:06.529Z,96.97
2016-12-15T09:19:06.544Z,97.07
2016-12-15T09:20:06.562Z,96.31
2016-12-15T09:21:06.578Z,95.93
2016-12-15T09:22:06.595Z,96.31
2016-12-15T09:25:06.647Z,94.42
2016-12-15T09:28:06.699Z,93.46
2016-12-15T09:29:06.724Z,93.08
2016-12-15T09:30:06.735Z,93.51
2016-12-15T09:31:21.669Z,93.04
2016-12-15T09:32:06.770Z,92.85
2016-12-15T09:33:06.786Z,92.47
2016-12-15T09:34:06.806Z,92.09
2016-12-15T09:35:06.824Z,91.61
2016-12-15T09:36:06.840Z,91.24
2016-12-15T09:37:06.857Z,91.05
2016-12-15T09:38:06.874Z,91.05
2016-12-15T09:39:06.891Z,90.48
2016-12-15T09:41:06.926Z,90.86
2016-12-15T09:42:06.948Z,90.19
2016-12-15T09:43:06.963Z,89.91
2016-12-15T09:44:06.979Z,89.72
2016-12-15T09:45:06.996Z,89.91
2016-12-15T09:46:07.015Z,89.25
2016-12-15T09:47:21.950Z,88.77
2016-12-15T09:48:07.051Z,88.29
2016-12-15T09:49:07.118Z,87.92
2016-12-15T09:50:07.085Z,88.01
2016-12-15T09:51:07.101Z,88.01
2016-12-15T09:52:07.122Z,88.77
2016-12-15T09:53:07.139Z,88.96
2016-12-15T09:54:07.155Z,89.25
2016-12-15T09:55:07.173Z,88.58
2016-12-15T09:56:07.192Z,88.77
2016-12-15T09:57:07.208Z,88.77
2016-12-15T09:58:07.532Z,88.68
2016-12-15T09:59:07.245Z,88.87
2016-12-15T10:00:07.262Z,89.15
2016-12-15T10:01:07.280Z,88.58
2016-12-15T10:02:07.298Z,88.58
2016-12-15T10:03:22.232Z,88.68
2016-12-15T10:04:07.381Z,88.87
2016-12-15T10:05:07.369Z,88.87
2016-12-15T10:06:07.369Z,88.58
2016-12-15T10:07:07.385Z,88.1
2016-12-15T10:08:07.404Z,86.68
2016-12-15T10:09:07.420Z,86.49
2016-12-15T10:10:07.742Z,86.68
2016-12-15T10:11:07.456Z,86.68
2016-12-15T10:12:07.475Z,86.11
2016-12-15T10:15:07.528Z,87.06
2016-12-15T10:16:07.549Z,87.25
2016-12-15T10:17:07.563Z,87.06
2016-12-15T10:18:07.582Z,86.78
2016-12-15T10:19:22.517Z,86.78
2016-12-15T10:20:07.618Z,86.3
2016-12-15T10:21:07.639Z,86.59
2016-12-15T10:22:07.654Z,86.3
2016-12-15T10:23:07.672Z,85.74
2016-12-15T10:24:07.689Z,87.06
2016-12-15T10:25:07.707Z,86.11
2016-12-15T10:26:07.722Z,86.3
2016-12-15T10:27:07.743Z,85.93
2016-12-15T10:28:07.763Z,85.74
2016-12-15T10:29:07.776Z,85.64
2016-12-15T10:31:07.813Z,85.93
2016-12-15T10:32:07.834Z,86.4
2016-12-15T10:33:07.849Z,86.49
2016-12-15T10:34:22.785Z,85.93
2016-12-15T10:35:07.885Z,86.02
2016-12-15T10:36:07.902Z,86.21
2016-12-15T10:37:07.924Z,86.02
2016-12-15T10:38:07.949Z,86.21
2016-12-15T10:39:07.957Z,86.4
2016-12-15T10:40:07.974Z,85.97
2016-12-15T10:41:07.992Z,85.97
2016-12-15T10:42:08.011Z,86.07
2016-12-15T10:43:08.029Z,86.3
2016-12-15T10:44:08.046Z,85.68
2016-12-15T10:46:08.086Z,86.02
2016-12-15T10:47:08.099Z,84.69
2016-12-15T10:48:08.117Z,84.5
2016-12-15T10:49:08.135Z,85.17
2016-12-15T10:50:08.152Z,84.78
2016-12-15T10:51:08.171Z,85.45
2016-12-15T10:52:08.189Z,85.36
2016-12-15T10:53:08.508Z,85.64
2016-12-15T10:54:08.225Z,85.07
2016-12-15T10:55:08.243Z,85.02
2016-12-15T10:56:08.265Z,85.11
2016-12-15T10:57:08.279Z,85.4
2016-12-15T10:58:08.297Z,85.4
2016-12-15T10:59:08.315Z,85.3
2016-12-15T11:00:08.335Z,85.49
2016-12-15T11:03:08.386Z,85.11
2016-12-15T11:04:08.406Z,84.74
2016-12-15T11:05:08.421Z,84.74
2016-12-15T11:06:23.358Z,84.55
2016-12-15T11:07:08.459Z,84.64
2016-12-15T11:08:08.476Z,84.64
2016-12-15T11:09:08.492Z,84.74
2016-12-15T11:10:08.511Z,84.59
2016-12-15T11:11:08.530Z,85.11
2016-12-15T11:12:08.600Z,85.11
2016-12-15T11:13:08.564Z,85.3
2016-12-15T11:14:08.583Z,85.49
2016-12-15T11:15:08.605Z,84.55
2016-12-15T11:16:08.619Z,84.88
2016-12-15T11:19:08.675Z,84.78
2016-12-15T11:20:08.692Z,84.98
2016-12-15T11:21:08.709Z,84.88
2016-12-15T11:22:23.646Z,84.78
2016-12-15T11:23:08.747Z,84.69
2016-12-15T11:24:08.762Z,84.88
2016-12-15T11:25:08.783Z,84.31
2016-12-15T11:26:08.799Z,84.31
2016-12-15T11:27:08.818Z,84.69
2016-12-15T11:28:08.834Z,84.41
2016-12-15T11:29:08.856Z,84.98
2016-12-15T11:30:08.876Z,84.5
2016-12-15T11:31:08.888Z,84.69
2016-12-15T11:32:08.911Z,84.5
2016-12-15T11:34:08.943Z,84.5
2016-12-15T11:35:08.961Z,85.45
2016-12-15T11:36:08.977Z,84.5
2016-12-15T11:37:08.994Z,84.41
2016-12-15T11:38:23.931Z,84.69
2016-12-15T11:39:09.030Z,85.07
2016-12-15T11:40:09.048Z,85.45
2016-12-15T11:41:09.067Z,85.07
2016-12-15T11:42:09.084Z,84.78
2016-12-15T11:43:09.104Z,84.78
2016-12-15T11:44:09.119Z,84.98
2016-12-15T11:45:09.137Z,84.78
2016-12-15T11:46:09.156Z,84.88
2016-12-15T11:47:09.179Z,84.98
2016-12-15T11:48:09.194Z,84.69
2016-12-15T11:49:09.208Z,84.5
2016-12-15T11:50:09.226Z,84.78
2016-12-15T11:51:09.244Z,84.5
2016-12-15T11:52:09.268Z,83.94
2016-12-15T11:53:09.279Z,84.22
2016-12-15T11:54:24.217Z,84.5
2016-12-15T11:55:09.316Z,85.07
2016-12-15T11:56:09.334Z,84.5
2016-12-15T11:57:09.354Z,84.69
2016-12-15T11:58:09.367Z,84.5
2016-12-15T11:59:09.388Z,84.88
2016-12-15T12:01:09.420Z,84.41
2016-12-15T12:02:09.438Z,83.84
2016-12-15T12:03:09.455Z,84.03
2016-12-15T12:06:09.508Z,85.07
2016-12-15T12:07:09.525Z,83.74
2016-12-15T12:08:09.543Z,84.03
2016-12-15T12:09:24.480Z,83.94
2016-12-15T12:10:09.579Z,84.22
2016-12-15T12:11:09.596Z,84.69
2016-12-15T12:12:09.613Z,84.12
2016-12-15T12:13:09.631Z,83.27
2016-12-15T12:14:09.649Z,83.46
2016-12-15T12:15:09.993Z,83.46
2016-12-15T12:18:09.718Z,84.31
2016-12-15T12:19:09.736Z,84.12
2016-12-15T12:21:09.772Z,84.31
2016-12-15T12:22:09.788Z,84.03
2016-12-15T12:23:09.807Z,83.65
2016-12-15T12:24:09.824Z,83.46
2016-12-15T12:25:09.843Z,83.65
2016-12-15T12:26:09.858Z,83.36
2016-12-15T12:27:09.876Z,83.46
2016-12-15T12:28:09.898Z,83.65
2016-12-15T12:29:09.912Z,83.36
2016-12-15T12:30:09.928Z,83.55
2016-12-15T12:31:09.947Z,83.65
2016-12-15T12:33:09.981Z,84.12
2016-12-15T12:34:10.000Z,84.22
2016-12-15T12:35:10.050Z,84.5
2016-12-15T12:38:10.071Z,84.12
2016-12-15T12:39:10.090Z,84.12
2016-12-15T12:40:10.107Z,84.69
2016-12-15T12:41:25.042Z,84.41
2016-12-15T12:42:10.146Z,84.03
2016-12-15T12:43:10.163Z,84.22
2016-12-15T12:44:10.178Z,84.12
2016-12-15T12:45:10.245Z,84.12
2016-12-15T12:46:10.213Z,84.12
2016-12-15T12:47:10.230Z,84.03
2016-12-15T12:48:10.245Z,83.94
2016-12-15T12:49:10.265Z,84.69
2016-12-15T12:50:10.284Z,84.59
2016-12-15T12:51:10.299Z,84.5
2016-12-15T12:52:10.318Z,83.94
2016-12-15T12:54:10.356Z,84.98
2016-12-15T12:55:10.370Z,84.59
2016-12-15T12:56:10.387Z,84.59
2016-12-15T12:57:25.324Z,84.5
2016-12-15T12:58:10.424Z,84.78
2016-12-15T12:59:10.442Z,84.88
2016-12-15T13:00:10.462Z,84.59
2016-12-15T13:01:10.475Z,84.5
2016-12-15T13:02:10.492Z,84.69
2016-12-15T13:03:10.560Z,84.98
2016-12-15T13:04:10.528Z,84.31
2016-12-15T13:05:10.554Z,84.5
2016-12-15T13:06:10.572Z,84.88
2016-12-15T13:07:10.586Z,84.59
2016-12-15T13:08:10.600Z,84.78
2016-12-15T13:09:10.615Z,85.07
2016-12-15T13:10:10.633Z,85.26
2016-12-15T13:11:10.650Z,84.78
2016-12-15T13:12:10.669Z,84.69
2016-12-15T13:13:25.602Z,84.98
2016-12-15T13:14:10.905Z,84.88
2016-12-15T13:15:11.026Z,85.07
2016-12-15T13:16:10.738Z,85.26
2016-12-15T13:17:10.756Z,84.88
2016-12-15T13:18:10.772Z,84.5
2016-12-15T13:20:10.809Z,84.5
2016-12-15T13:21:10.826Z,84.69
2016-12-15T13:22:10.842Z,84.69
2016-12-15T13:24:10.877Z,84.5
2016-12-15T13:25:10.895Z,85.26
2016-12-15T13:26:10.913Z,84.78
2016-12-15T13:27:10.932Z,84.98
2016-12-15T13:28:10.946Z,85.64
2016-12-15T13:29:25.883Z,85.17
2016-12-15T13:30:10.982Z,85.07
2016-12-15T13:31:11.001Z,84.88
2016-12-15T13:32:11.017Z,85.26
2016-12-15T13:33:11.035Z,85.07
2016-12-15T13:34:11.058Z,85.03
2016-12-15T13:35:11.069Z,85.31
2016-12-15T13:36:11.138Z,85.07
2016-12-15T13:37:11.105Z,84.84
2016-12-15T13:38:11.121Z,85.41
2016-12-15T13:39:11.138Z,85.36
2016-12-15T13:40:11.159Z,85.83
2016-12-15T13:41:11.174Z,86.02
2016-12-15T13:42:11.191Z,85.17
2016-12-15T13:43:11.210Z,85.74
2016-12-15T13:44:26.145Z,85.07
2016-12-15T13:45:11.246Z,85.07
2016-12-15T13:46:11.261Z,84.98